LIFTER2 ETNW-ETNW
Flight info
| Callsign | LIFTER2 |
|---|---|
| Flight time | 1h 56m |
| Altitude | 2000 |
| Route | WUN DCT NORTA DCT ORTAG DCT KOJEC DCT UPDAT DCT WUN |
| Aircraft | A400/H-SDE2E3FGHIJ4J5M1RWXY/S |
Departure
| Time | 2026-04-18 18:28 |
|---|---|
| Airport | Wunstorf Air Base (ETNW) |
Arrival
| Time | 2026-04-18 20:25 |
|---|---|
| Airport | Wunstorf Air Base (ETNW) |
| Time | Latitude | Longitude | Altitude | Speed | Heading |
|---|---|---|---|---|---|
| 2026-04-18 18:03 | 52.46070 | 9.42498 | 184 ft | 0 kts | 262° |
| 2026-04-18 18:23 | 52.46070 | 9.42497 | 184 ft | 1 kts | 262° |
| 2026-04-18 18:23 | 52.46061 | 9.42416 | 189 ft | 2 kts | 245° |
| 2026-04-18 18:23 | 52.46037 | 9.42411 | 186 ft | 6 kts | 167° |
| 2026-04-18 18:23 | 52.45977 | 9.42434 | 191 ft | 11 kts | 166° |
| 2026-04-18 18:24 | 52.45922 | 9.42483 | 187 ft | 7 kts | 118° |
| 2026-04-18 18:24 | 52.45920 | 9.42596 | 181 ft | 12 kts | 83° |
| 2026-04-18 18:24 | 52.45940 | 9.42803 | 184 ft | 21 kts | 81° |
| 2026-04-18 18:24 | 52.45963 | 9.43046 | 181 ft | 22 kts | 80° |
| 2026-04-18 18:25 | 52.45986 | 9.43315 | 182 ft | 26 kts | 81° |
| 2026-04-18 18:25 | 52.46014 | 9.43607 | 188 ft | 26 kts | 80° |
| 2026-04-18 18:25 | 52.46041 | 9.43884 | 191 ft | 24 kts | 81° |
| 2026-04-18 18:25 | 52.46053 | 9.44149 | 198 ft | 22 kts | 94° |
| 2026-04-18 18:26 | 52.46038 | 9.44398 | 193 ft | 22 kts | 97° |
| 2026-04-18 18:26 | 52.46027 | 9.44553 | 202 ft | 1 kts | 98° |
| 2026-04-18 18:26 | 52.46026 | 9.44557 | 202 ft | 0 kts | 98° |
| 2026-04-18 18:26 | 52.46023 | 9.44598 | 198 ft | 8 kts | 98° |
| 2026-04-18 18:27 | 52.46015 | 9.44690 | 203 ft | 0 kts | 98° |
| 2026-04-18 18:27 | 52.46013 | 9.44720 | 196 ft | 14 kts | 98° |
| 2026-04-18 18:27 | 52.45979 | 9.44855 | 202 ft | 10 kts | 157° |
| 2026-04-18 18:27 | 52.45925 | 9.44805 | 207 ft | 16 kts | 239° |
| 2026-04-18 18:28 | 52.45885 | 9.44369 | 197 ft | 89 kts | 262° |
| 2026-04-18 18:28 | 52.45744 | 9.42776 | 370 ft | 173 kts | 262° |
| 2026-04-18 18:28 | 52.45498 | 9.40623 | 750 ft | 204 kts | 259° |
| 2026-04-18 18:28 | 52.45053 | 9.38315 | 889 ft | 222 kts | 250° |
| 2026-04-18 18:29 | 52.44461 | 9.35889 | 881 ft | 233 kts | 248° |
| 2026-04-18 18:29 | 52.43565 | 9.33734 | 989 ft | 235 kts | 218° |
| 2026-04-18 18:29 | 52.41997 | 9.32798 | 1014 ft | 254 kts | 193° |
| 2026-04-18 18:29 | 52.40119 | 9.32140 | 1025 ft | 290 kts | 194° |
| 2026-04-18 18:30 | 52.38275 | 9.31191 | 1109 ft | 258 kts | 206° |
| 2026-04-18 18:30 | 52.36693 | 9.30090 | 1083 ft | 247 kts | 196° |
| 2026-04-18 18:30 | 52.34947 | 9.30263 | 1108 ft | 262 kts | 160° |
| 2026-04-18 18:30 | 52.33361 | 9.31692 | 1138 ft | 256 kts | 150° |
| 2026-04-18 18:31 | 52.31848 | 9.33118 | 1333 ft | 248 kts | 151° |
| 2026-04-18 18:31 | 52.30362 | 9.34526 | 1618 ft | 247 kts | 151° |
| 2026-04-18 18:31 | 52.28807 | 9.35754 | 1897 ft | 249 kts | 160° |
| 2026-04-18 18:31 | 52.27117 | 9.36480 | 2121 ft | 256 kts | 171° |
| 2026-04-18 18:32 | 52.25334 | 9.36927 | 2216 ft | 267 kts | 174° |
| 2026-04-18 18:32 | 52.23486 | 9.37592 | 2238 ft | 271 kts | 161° |
| 2026-04-18 18:32 | 52.22024 | 9.39020 | 2288 ft | 234 kts | 137° |
| 2026-04-18 18:32 | 52.20736 | 9.40813 | 2340 ft | 255 kts | 142° |
| 2026-04-18 18:33 | 52.19268 | 9.42653 | 2277 ft | 268 kts | 142° |
| 2026-04-18 18:33 | 52.17859 | 9.44461 | 2286 ft | 255 kts | 142° |
| 2026-04-18 18:33 | 52.16469 | 9.46282 | 2259 ft | 257 kts | 141° |
| 2026-04-18 18:33 | 52.15048 | 9.48090 | 2220 ft | 260 kts | 143° |
| 2026-04-18 18:34 | 52.13611 | 9.49832 | 2379 ft | 255 kts | 142° |
| 2026-04-18 18:34 | 52.12247 | 9.51597 | 2594 ft | 254 kts | 143° |
| 2026-04-18 18:34 | 52.10835 | 9.53361 | 2793 ft | 258 kts | 143° |
| 2026-04-18 18:34 | 52.09417 | 9.55190 | 2846 ft | 262 kts | 135° |
| 2026-04-18 18:35 | 52.08443 | 9.57535 | 3208 ft | 241 kts | 118° |
| 2026-04-18 18:35 | 52.07554 | 9.59927 | 3208 ft | 258 kts | 122° |
| 2026-04-18 18:35 | 52.06547 | 9.62418 | 3338 ft | 268 kts | 125° |
| 2026-04-18 18:35 | 52.05444 | 9.64924 | 3450 ft | 273 kts | 126° |
| 2026-04-18 18:36 | 52.04373 | 9.67333 | 3464 ft | 251 kts | 122° |
| 2026-04-18 18:36 | 52.03376 | 9.69632 | 3574 ft | 254 kts | 131° |
| 2026-04-18 18:36 | 52.02045 | 9.71552 | 3634 ft | 258 kts | 148° |
| 2026-04-18 18:36 | 52.00479 | 9.73040 | 3545 ft | 266 kts | 151° |
| 2026-04-18 18:37 | 51.98823 | 9.74519 | 3457 ft | 276 kts | 153° |
| 2026-04-18 18:37 | 51.97158 | 9.75975 | 3341 ft | 261 kts | 152° |
| 2026-04-18 18:37 | 51.95602 | 9.77351 | 3333 ft | 248 kts | 157° |
| 2026-04-18 18:37 | 51.93981 | 9.78262 | 3226 ft | 253 kts | 166° |
| 2026-04-18 18:38 | 51.92237 | 9.78924 | 3098 ft | 261 kts | 168° |
| 2026-04-18 18:38 | 51.90467 | 9.79604 | 3023 ft | 262 kts | 168° |
| 2026-04-18 18:38 | 51.88691 | 9.80275 | 2915 ft | 259 kts | 165° |
| 2026-04-18 18:38 | 51.86972 | 9.81026 | 2866 ft | 255 kts | 166° |
| 2026-04-18 18:39 | 51.85251 | 9.81540 | 2840 ft | 251 kts | 176° |
| 2026-04-18 18:39 | 51.83527 | 9.81522 | 2846 ft | 253 kts | 186° |
| 2026-04-18 18:39 | 51.81725 | 9.81380 | 2729 ft | 262 kts | 181° |
| 2026-04-18 18:39 | 51.79982 | 9.82194 | 2745 ft | 257 kts | 150° |
| 2026-04-18 18:40 | 51.78734 | 9.84153 | 2793 ft | 250 kts | 118° |
| 2026-04-18 18:40 | 51.78263 | 9.86802 | 2921 ft | 239 kts | 95° |
| 2026-04-18 18:40 | 51.78054 | 9.89450 | 3067 ft | 244 kts | 97° |
| 2026-04-18 18:40 | 51.77782 | 9.92275 | 2957 ft | 266 kts | 94° |
| 2026-04-18 18:41 | 51.77806 | 9.95249 | 3093 ft | 260 kts | 85° |
| 2026-04-18 18:41 | 51.77906 | 9.98120 | 3100 ft | 261 kts | 86° |
| 2026-04-18 18:41 | 51.77938 | 10.01087 | 3099 ft | 264 kts | 89° |
| 2026-04-18 18:41 | 51.77764 | 10.03883 | 3182 ft | 236 kts | 104° |
| 2026-04-18 18:42 | 51.77140 | 10.06413 | 3104 ft | 252 kts | 111° |
| 2026-04-18 18:42 | 51.76444 | 10.09089 | 3116 ft | 264 kts | 112° |
| 2026-04-18 18:42 | 51.75845 | 10.11937 | 2886 ft | 280 kts | 95° |
| 2026-04-18 18:42 | 51.75829 | 10.14897 | 3139 ft | 240 kts | 89° |
| 2026-04-18 18:43 | 51.75679 | 10.20382 | 2969 ft | 256 kts | 90° |
| 2026-04-18 18:43 | 51.75416 | 10.23164 | 3158 ft | 247 kts | 109° |
| 2026-04-18 18:43 | 51.74507 | 10.25570 | 3206 ft | 261 kts | 131° |
| 2026-04-18 18:44 | 51.73143 | 10.27509 | 3012 ft | 267 kts | 140° |
| 2026-04-18 18:44 | 51.71622 | 10.29485 | 2780 ft | 284 kts | 142° |
| 2026-04-18 18:44 | 51.70035 | 10.31284 | 2788 ft | 275 kts | 145° |
| 2026-04-18 18:44 | 51.68523 | 10.33017 | 2751 ft | 265 kts | 140° |
| 2026-04-18 18:45 | 51.67191 | 10.34842 | 2810 ft | 248 kts | 138° |
| 2026-04-18 18:45 | 51.65866 | 10.36680 | 2842 ft | 255 kts | 139° |
| 2026-04-18 18:45 | 51.64512 | 10.38581 | 2695 ft | 263 kts | 132° |
| 2026-04-18 18:45 | 51.63438 | 10.40901 | 2791 ft | 254 kts | 124° |
| 2026-04-18 18:46 | 51.62359 | 10.43091 | 2769 ft | 241 kts | 130° |
| 2026-04-18 18:46 | 51.61280 | 10.45239 | 2786 ft | 253 kts | 128° |
| 2026-04-18 18:46 | 51.60160 | 10.47438 | 2778 ft | 256 kts | 128° |
| 2026-04-18 18:46 | 51.59034 | 10.49687 | 2756 ft | 258 kts | 127° |
| 2026-04-18 18:47 | 51.57896 | 10.51930 | 2687 ft | 259 kts | 132° |
| 2026-04-18 18:47 | 51.56661 | 10.54042 | 2670 ft | 258 kts | 133° |
| 2026-04-18 18:47 | 51.55425 | 10.56125 | 2701 ft | 258 kts | 133° |
| 2026-04-18 18:47 | 51.54186 | 10.58201 | 2700 ft | 258 kts | 133° |
| 2026-04-18 18:48 | 51.52934 | 10.60288 | 2692 ft | 260 kts | 133° |
| 2026-04-18 18:48 | 51.51683 | 10.62365 | 2728 ft | 258 kts | 133° |
| 2026-04-18 18:48 | 51.50435 | 10.64425 | 2757 ft | 256 kts | 133° |
| 2026-04-18 18:48 | 51.49205 | 10.66443 | 2750 ft | 255 kts | 134° |
| 2026-04-18 18:49 | 51.48076 | 10.68615 | 2771 ft | 253 kts | 124° |
| 2026-04-18 18:49 | 51.47076 | 10.70938 | 2815 ft | 253 kts | 123° |
| 2026-04-18 18:49 | 51.46066 | 10.73301 | 2749 ft | 259 kts | 123° |
| 2026-04-18 18:49 | 51.45048 | 10.75677 | 2726 ft | 256 kts | 123° |
| 2026-04-18 18:50 | 51.44036 | 10.78031 | 2752 ft | 254 kts | 123° |
| 2026-04-18 18:50 | 51.43033 | 10.80354 | 2859 ft | 253 kts | 124° |
| 2026-04-18 18:50 | 51.42032 | 10.82667 | 2826 ft | 259 kts | 124° |
| 2026-04-18 18:50 | 51.40987 | 10.85071 | 2743 ft | 260 kts | 124° |
| 2026-04-18 18:51 | 51.39960 | 10.87419 | 2716 ft | 254 kts | 124° |
| 2026-04-18 18:51 | 51.38798 | 10.89476 | 2712 ft | 255 kts | 152° |
| 2026-04-18 18:51 | 51.37070 | 10.89791 | 2686 ft | 256 kts | 197° |
| 2026-04-18 18:51 | 51.35415 | 10.88780 | 2723 ft | 252 kts | 201° |
| 2026-04-18 18:52 | 51.33765 | 10.87861 | 2876 ft | 248 kts | 202° |
| 2026-04-18 18:52 | 51.32235 | 10.86692 | 3016 ft | 246 kts | 206° |
| 2026-04-18 18:52 | 51.30659 | 10.85556 | 3042 ft | 250 kts | 205° |
| 2026-04-18 18:52 | 51.29136 | 10.84378 | 3370 ft | 230 kts | 217° |
| 2026-04-18 18:53 | 51.28271 | 10.82322 | 3552 ft | 231 kts | 260° |
| 2026-04-18 18:53 | 51.28534 | 10.79798 | 3520 ft | 238 kts | 295° |
| 2026-04-18 18:53 | 51.29209 | 10.77330 | 3576 ft | 245 kts | 293° |
| 2026-04-18 18:53 | 51.29825 | 10.74770 | 3635 ft | 258 kts | 294° |
| 2026-04-18 18:54 | 51.30543 | 10.72025 | 3572 ft | 276 kts | 292° |
| 2026-04-18 18:54 | 51.31268 | 10.69118 | 3591 ft | 288 kts | 293° |
| 2026-04-18 18:54 | 51.32068 | 10.66220 | 3621 ft | 269 kts | 296° |
| 2026-04-18 18:54 | 51.32845 | 10.63644 | 3621 ft | 253 kts | 297° |
| 2026-04-18 18:55 | 51.33617 | 10.61061 | 3584 ft | 262 kts | 295° |
| 2026-04-18 18:55 | 51.34354 | 10.58382 | 3542 ft | 265 kts | 294° |
| 2026-04-18 18:55 | 51.35041 | 10.55755 | 3468 ft | 254 kts | 294° |
| 2026-04-18 18:55 | 51.35714 | 10.53120 | 3409 ft | 256 kts | 294° |
| 2026-04-18 18:56 | 51.36395 | 10.50445 | 3290 ft | 261 kts | 294° |
| 2026-04-18 18:56 | 51.37090 | 10.47728 | 3224 ft | 261 kts | 293° |
| 2026-04-18 18:56 | 51.37726 | 10.45181 | 3174 ft | 238 kts | 292° |
| 2026-04-18 18:56 | 51.38228 | 10.42723 | 3152 ft | 225 kts | 288° |
| 2026-04-18 18:57 | 51.38693 | 10.40498 | 3304 ft | 212 kts | 294° |
| 2026-04-18 18:57 | 51.39282 | 10.38090 | 3368 ft | 241 kts | 288° |
| 2026-04-18 18:57 | 51.39712 | 10.35686 | 3487 ft | 222 kts | 289° |
| 2026-04-18 18:57 | 51.40183 | 10.33314 | 3420 ft | 229 kts | 289° |
| 2026-04-18 18:58 | 51.40656 | 10.30844 | 3444 ft | 231 kts | 289° |
| 2026-04-18 18:58 | 51.40960 | 10.29213 | 3452 ft | 231 kts | 286° |
| 2026-04-18 18:58 | 51.41354 | 10.26837 | 3470 ft | 211 kts | 285° |
| 2026-04-18 18:58 | 51.41861 | 10.23570 | 3540 ft | 232 kts | 287° |
| 2026-04-18 18:59 | 51.42102 | 10.21903 | 3580 ft | 226 kts | 284° |
| 2026-04-18 18:59 | 51.42441 | 10.19427 | 3590 ft | 229 kts | 283° |
| 2026-04-18 18:59 | 51.43109 | 10.17218 | 3707 ft | 224 kts | 320° |
| 2026-04-18 18:59 | 51.44325 | 10.15735 | 3631 ft | 210 kts | 325° |
| 2026-04-18 19:00 | 51.45541 | 10.14358 | 3502 ft | 224 kts | 322° |
| 2026-04-18 19:00 | 51.46738 | 10.12693 | 3519 ft | 226 kts | 319° |
| 2026-04-18 19:00 | 51.47849 | 10.10952 | 3498 ft | 225 kts | 315° |
| 2026-04-18 19:00 | 51.48951 | 10.09135 | 3520 ft | 226 kts | 315° |
| 2026-04-18 19:01 | 51.50036 | 10.07337 | 3502 ft | 221 kts | 315° |
| 2026-04-18 19:01 | 51.51050 | 10.05619 | 3528 ft | 203 kts | 314° |
| 2026-04-18 19:01 | 51.51969 | 10.03942 | 3539 ft | 197 kts | 311° |
| 2026-04-18 19:01 | 51.52833 | 10.02213 | 3616 ft | 201 kts | 310° |
| 2026-04-18 19:02 | 51.53831 | 10.00587 | 3708 ft | 209 kts | 322° |
| 2026-04-18 19:02 | 51.55016 | 9.99151 | 3707 ft | 219 kts | 324° |
| 2026-04-18 19:02 | 51.56271 | 9.97666 | 3730 ft | 230 kts | 324° |
| 2026-04-18 19:02 | 51.57596 | 9.96127 | 3688 ft | 241 kts | 324° |
| 2026-04-18 19:03 | 51.58998 | 9.94536 | 3595 ft | 249 kts | 325° |
| 2026-04-18 19:03 | 51.60407 | 9.92966 | 3588 ft | 246 kts | 326° |
| 2026-04-18 19:03 | 51.61735 | 9.91514 | 3636 ft | 222 kts | 326° |
| 2026-04-18 19:04 | 51.64300 | 9.88798 | 3860 ft | 219 kts | 327° |
| 2026-04-18 19:04 | 51.65596 | 9.87471 | 3980 ft | 221 kts | 327° |
| 2026-04-18 19:04 | 51.67062 | 9.86869 | 3935 ft | 227 kts | 8° |
| 2026-04-18 19:04 | 51.68473 | 9.88013 | 3770 ft | 239 kts | 36° |
| 2026-04-18 19:05 | 51.69359 | 9.90314 | 3502 ft | 252 kts | 75° |
| 2026-04-18 19:05 | 51.67757 | 9.94886 | 2941 ft | 259 kts | 161° |
| 2026-04-18 19:05 | 51.66145 | 9.95497 | 3216 ft | 216 kts | 171° |
| 2026-04-18 19:06 | 51.64686 | 9.95957 | 3284 ft | 221 kts | 168° |
| 2026-04-18 19:06 | 51.61862 | 9.98263 | 3211 ft | 239 kts | 143° |
| 2026-04-18 19:06 | 51.60536 | 9.99812 | 3251 ft | 224 kts | 144° |
| 2026-04-18 19:07 | 51.59321 | 10.01139 | 3304 ft | 199 kts | 146° |
| 2026-04-18 19:07 | 51.58161 | 10.02309 | 2992 ft | 201 kts | 149° |
| 2026-04-18 19:07 | 51.56874 | 10.03499 | 2867 ft | 222 kts | 148° |
| 2026-04-18 19:07 | 51.55605 | 10.04998 | 2920 ft | 230 kts | 141° |
| 2026-04-18 19:08 | 51.54334 | 10.06616 | 3078 ft | 238 kts | 141° |
| 2026-04-18 19:08 | 51.52996 | 10.08201 | 3214 ft | 240 kts | 143° |
| 2026-04-18 19:08 | 51.51624 | 10.09798 | 3377 ft | 247 kts | 143° |
| 2026-04-18 19:08 | 51.50212 | 10.11455 | 3542 ft | 254 kts | 143° |
| 2026-04-18 19:09 | 51.48782 | 10.13193 | 3646 ft | 260 kts | 135° |
| 2026-04-18 19:09 | 51.47990 | 10.15664 | 3650 ft | 239 kts | 92° |
| 2026-04-18 19:09 | 51.48433 | 10.18151 | 3636 ft | 235 kts | 54° |
| 2026-04-18 19:09 | 51.49322 | 10.20327 | 3715 ft | 239 kts | 55° |
| 2026-04-18 19:10 | 51.50216 | 10.22605 | 3798 ft | 245 kts | 56° |
| 2026-04-18 19:10 | 51.51122 | 10.24982 | 3853 ft | 256 kts | 57° |
| 2026-04-18 19:10 | 51.52029 | 10.27563 | 3899 ft | 276 kts | 61° |
| 2026-04-18 19:10 | 51.52856 | 10.30458 | 3998 ft | 291 kts | 64° |
| 2026-04-18 19:11 | 51.53672 | 10.33417 | 3800 ft | 297 kts | 66° |
| 2026-04-18 19:11 | 51.54391 | 10.36388 | 3430 ft | 280 kts | 66° |
| 2026-04-18 19:11 | 51.55208 | 10.39049 | 3415 ft | 247 kts | 59° |
| 2026-04-18 19:11 | 51.56044 | 10.41283 | 3473 ft | 227 kts | 55° |
| 2026-04-18 19:12 | 51.56932 | 10.43566 | 3456 ft | 249 kts | 56° |
| 2026-04-18 19:12 | 51.57862 | 10.46049 | 3435 ft | 271 kts | 57° |
| 2026-04-18 19:12 | 51.58552 | 10.48639 | 3625 ft | 246 kts | 79° |
| 2026-04-18 19:12 | 51.58554 | 10.51485 | 3380 ft | 266 kts | 92° |
| 2026-04-18 19:13 | 51.58341 | 10.54471 | 3443 ft | 281 kts | 96° |
| 2026-04-18 19:13 | 51.58079 | 10.57670 | 3533 ft | 288 kts | 97° |
| 2026-04-18 19:13 | 51.57878 | 10.60597 | 3567 ft | 249 kts | 91° |
| 2026-04-18 19:13 | 51.57773 | 10.63504 | 3607 ft | 270 kts | 92° |
| 2026-04-18 19:14 | 51.57592 | 10.66556 | 3636 ft | 279 kts | 94° |
| 2026-04-18 19:14 | 51.57388 | 10.69662 | 3641 ft | 271 kts | 94° |
| 2026-04-18 19:14 | 51.57225 | 10.72602 | 3655 ft | 262 kts | 93° |
| 2026-04-18 19:14 | 51.57084 | 10.75499 | 3665 ft | 263 kts | 94° |
| 2026-04-18 19:15 | 51.56503 | 10.78186 | 3799 ft | 258 kts | 120° |
| 2026-04-18 19:15 | 51.55486 | 10.80650 | 3712 ft | 266 kts | 124° |
| 2026-04-18 19:15 | 51.54402 | 10.83136 | 3634 ft | 275 kts | 124° |
| 2026-04-18 19:15 | 51.53259 | 10.85609 | 3590 ft | 278 kts | 126° |
| 2026-04-18 19:16 | 51.52100 | 10.88048 | 3553 ft | 270 kts | 127° |
| 2026-04-18 19:16 | 51.50956 | 10.90392 | 3538 ft | 265 kts | 127° |
| 2026-04-18 19:16 | 51.49803 | 10.92704 | 3506 ft | 266 kts | 127° |
| 2026-04-18 19:16 | 51.48669 | 10.95069 | 3491 ft | 268 kts | 125° |
| 2026-04-18 19:17 | 51.47595 | 10.97520 | 3508 ft | 264 kts | 125° |
| 2026-04-18 19:17 | 51.46514 | 10.99884 | 3424 ft | 266 kts | 123° |
| 2026-04-18 19:17 | 51.45480 | 11.02337 | 3292 ft | 267 kts | 116° |
| 2026-04-18 19:17 | 51.45240 | 11.05165 | 3207 ft | 254 kts | 73° |
| 2026-04-18 19:18 | 51.46222 | 11.07363 | 3415 ft | 235 kts | 41° |
| 2026-04-18 19:18 | 51.47415 | 11.09221 | 3432 ft | 245 kts | 43° |
| 2026-04-18 19:18 | 51.48621 | 11.11210 | 3496 ft | 258 kts | 46° |
| 2026-04-18 19:18 | 51.49853 | 11.13388 | 3470 ft | 270 kts | 46° |
| 2026-04-18 19:19 | 51.51145 | 11.15575 | 3528 ft | 269 kts | 47° |
| 2026-04-18 19:19 | 51.52256 | 11.17999 | 3476 ft | 271 kts | 53° |
| 2026-04-18 19:19 | 51.53435 | 11.20346 | 3507 ft | 267 kts | 52° |
| 2026-04-18 19:19 | 51.54595 | 11.22659 | 3553 ft | 262 kts | 46° |
| 2026-04-18 19:20 | 51.55852 | 11.24759 | 3528 ft | 265 kts | 45° |
| 2026-04-18 19:20 | 51.56958 | 11.27173 | 3548 ft | 260 kts | 58° |
| 2026-04-18 19:20 | 51.57663 | 11.29653 | 3594 ft | 240 kts | 69° |
| 2026-04-18 19:20 | 51.58208 | 11.32071 | 3595 ft | 231 kts | 68° |
| 2026-04-18 19:21 | 51.58772 | 11.34558 | 3634 ft | 240 kts | 69° |
| 2026-04-18 19:21 | 51.59323 | 11.37027 | 3691 ft | 223 kts | 68° |
| 2026-04-18 19:21 | 51.59909 | 11.39351 | 3830 ft | 223 kts | 62° |
| 2026-04-18 19:21 | 51.60791 | 11.41419 | 3808 ft | 227 kts | 46° |
| 2026-04-18 19:22 | 51.61882 | 11.43300 | 3708 ft | 231 kts | 44° |
| 2026-04-18 19:22 | 51.63071 | 11.45029 | 3573 ft | 231 kts | 38° |
| 2026-04-18 19:22 | 51.64321 | 11.46671 | 3546 ft | 232 kts | 37° |
| 2026-04-18 19:22 | 51.65512 | 11.48404 | 3541 ft | 231 kts | 44° |
| 2026-04-18 19:23 | 51.66802 | 11.49874 | 3488 ft | 230 kts | 13° |
| 2026-04-18 19:23 | 51.68349 | 11.49513 | 3443 ft | 230 kts | 328° |
| 2026-04-18 19:23 | 51.69261 | 11.47483 | 3410 ft | 230 kts | 283° |
| 2026-04-18 19:23 | 51.68979 | 11.45045 | 3492 ft | 233 kts | 237° |
| 2026-04-18 19:24 | 51.67797 | 11.43194 | 3556 ft | 238 kts | 223° |
| 2026-04-18 19:24 | 51.66533 | 11.41445 | 3638 ft | 239 kts | 221° |
| 2026-04-18 19:24 | 51.65275 | 11.39763 | 3746 ft | 236 kts | 222° |
| 2026-04-18 19:24 | 51.64047 | 11.38005 | 3750 ft | 238 kts | 224° |
| 2026-04-18 19:25 | 51.62821 | 11.36190 | 3695 ft | 241 kts | 224° |
| 2026-04-18 19:25 | 51.61591 | 11.34373 | 3650 ft | 238 kts | 224° |
| 2026-04-18 19:25 | 51.60378 | 11.32589 | 3738 ft | 234 kts | 224° |
| 2026-04-18 19:25 | 51.59202 | 11.30868 | 3921 ft | 227 kts | 224° |
| 2026-04-18 19:26 | 51.58007 | 11.29117 | 3906 ft | 235 kts | 224° |
| 2026-04-18 19:26 | 51.56802 | 11.27357 | 3904 ft | 234 kts | 224° |
| 2026-04-18 19:26 | 51.55584 | 11.25582 | 3745 ft | 236 kts | 223° |
| 2026-04-18 19:26 | 51.54375 | 11.23823 | 3633 ft | 232 kts | 223° |
| 2026-04-18 19:27 | 51.53184 | 11.22096 | 3651 ft | 229 kts | 223° |
| 2026-04-18 19:27 | 51.52016 | 11.20412 | 3711 ft | 227 kts | 223° |
| 2026-04-18 19:27 | 51.50821 | 11.18692 | 3605 ft | 234 kts | 223° |
| 2026-04-18 19:27 | 51.49602 | 11.16939 | 3511 ft | 235 kts | 223° |
| 2026-04-18 19:28 | 51.48381 | 11.15188 | 3530 ft | 234 kts | 223° |
| 2026-04-18 19:28 | 51.47185 | 11.13480 | 3545 ft | 233 kts | 223° |
| 2026-04-18 19:28 | 51.45977 | 11.11759 | 3604 ft | 230 kts | 223° |
| 2026-04-18 19:28 | 51.44766 | 11.10037 | 3597 ft | 236 kts | 223° |
| 2026-04-18 19:29 | 51.43520 | 11.08271 | 3541 ft | 241 kts | 223° |
| 2026-04-18 19:29 | 51.42257 | 11.06475 | 3538 ft | 244 kts | 223° |
| 2026-04-18 19:29 | 51.40996 | 11.04686 | 3553 ft | 244 kts | 223° |
| 2026-04-18 19:29 | 51.39733 | 11.02899 | 3510 ft | 240 kts | 223° |
| 2026-04-18 19:30 | 51.38489 | 11.01148 | 3477 ft | 238 kts | 223° |
| 2026-04-18 19:30 | 51.37256 | 10.99397 | 3459 ft | 234 kts | 228° |
| 2026-04-18 19:30 | 51.36690 | 10.97056 | 3407 ft | 229 kts | 275° |
| 2026-04-18 19:30 | 51.37344 | 10.94841 | 3384 ft | 221 kts | 316° |
| 2026-04-18 19:31 | 51.38400 | 10.93038 | 3399 ft | 221 kts | 313° |
| 2026-04-18 19:31 | 51.39407 | 10.91214 | 3530 ft | 221 kts | 313° |
| 2026-04-18 19:31 | 51.40466 | 10.89377 | 3578 ft | 225 kts | 314° |
| 2026-04-18 19:31 | 51.41554 | 10.87550 | 3627 ft | 227 kts | 315° |
| 2026-04-18 19:32 | 51.42656 | 10.85739 | 3692 ft | 227 kts | 315° |
| 2026-04-18 19:32 | 51.43768 | 10.83950 | 3762 ft | 225 kts | 316° |
| 2026-04-18 19:32 | 51.44863 | 10.82215 | 3846 ft | 223 kts | 316° |
| 2026-04-18 19:32 | 51.45957 | 10.80457 | 3892 ft | 224 kts | 315° |
| 2026-04-18 19:33 | 51.47054 | 10.78651 | 3773 ft | 229 kts | 315° |
| 2026-04-18 19:33 | 51.48156 | 10.76800 | 3624 ft | 230 kts | 314° |
| 2026-04-18 19:33 | 51.49245 | 10.74927 | 3489 ft | 229 kts | 314° |
| 2026-04-18 19:33 | 51.50319 | 10.73031 | 3459 ft | 227 kts | 313° |
| 2026-04-18 19:34 | 51.51339 | 10.71192 | 3486 ft | 220 kts | 313° |
| 2026-04-18 19:34 | 51.52337 | 10.69361 | 3490 ft | 217 kts | 312° |
| 2026-04-18 19:34 | 51.53342 | 10.67525 | 3478 ft | 220 kts | 314° |
| 2026-04-18 19:34 | 51.54676 | 10.66475 | 3432 ft | 219 kts | 359° |
| 2026-04-18 19:35 | 51.56060 | 10.67393 | 3409 ft | 224 kts | 45° |
| 2026-04-18 19:35 | 51.56630 | 10.69709 | 3380 ft | 231 kts | 88° |
| 2026-04-18 19:35 | 51.56220 | 10.72233 | 3400 ft | 236 kts | 108° |
| 2026-04-18 19:35 | 51.55712 | 10.74752 | 3443 ft | 236 kts | 104° |
| 2026-04-18 19:36 | 51.55304 | 10.77339 | 3431 ft | 240 kts | 101° |
| 2026-04-18 19:36 | 51.54860 | 10.79940 | 3451 ft | 241 kts | 104° |
| 2026-04-18 19:36 | 51.54384 | 10.82457 | 3486 ft | 236 kts | 106° |
| 2026-04-18 19:36 | 51.53877 | 10.84940 | 3568 ft | 230 kts | 107° |
| 2026-04-18 19:37 | 51.53365 | 10.87357 | 3613 ft | 227 kts | 107° |
| 2026-04-18 19:37 | 51.52850 | 10.89742 | 3691 ft | 229 kts | 107° |
| 2026-04-18 19:37 | 51.52591 | 10.92262 | 3645 ft | 230 kts | 77° |
| 2026-04-18 19:37 | 51.53424 | 10.94366 | 3551 ft | 228 kts | 32° |
| 2026-04-18 19:38 | 51.54910 | 10.95157 | 3435 ft | 225 kts | 13° |
| 2026-04-18 19:38 | 51.56465 | 10.95773 | 3356 ft | 234 kts | 14° |
| 2026-04-18 19:38 | 51.58058 | 10.96459 | 3338 ft | 238 kts | 14° |
| 2026-04-18 19:38 | 51.59613 | 10.97140 | 3505 ft | 227 kts | 14° |
| 2026-04-18 19:39 | 51.61122 | 10.97814 | 3569 ft | 229 kts | 14° |
| 2026-04-18 19:39 | 51.62660 | 10.98513 | 3590 ft | 230 kts | 15° |
| 2026-04-18 19:39 | 51.64191 | 10.99223 | 3674 ft | 227 kts | 15° |
| 2026-04-18 19:39 | 51.65713 | 10.99943 | 3767 ft | 229 kts | 15° |
| 2026-04-18 19:40 | 51.67244 | 11.00682 | 3717 ft | 230 kts | 16° |
| 2026-04-18 19:40 | 51.68775 | 11.01435 | 3604 ft | 229 kts | 16° |
| 2026-04-18 19:40 | 51.70287 | 11.02189 | 3572 ft | 227 kts | 16° |
| 2026-04-18 19:40 | 51.71800 | 11.02918 | 3621 ft | 226 kts | 15° |
| 2026-04-18 19:41 | 51.73297 | 11.03556 | 3690 ft | 224 kts | 13° |
| 2026-04-18 19:41 | 51.74813 | 11.04214 | 3760 ft | 230 kts | 15° |
| 2026-04-18 19:41 | 51.76408 | 11.04908 | 3627 ft | 242 kts | 13° |
| 2026-04-18 19:41 | 51.78047 | 11.05694 | 3574 ft | 249 kts | 17° |
| 2026-04-18 19:42 | 51.79724 | 11.06527 | 3529 ft | 255 kts | 14° |
| 2026-04-18 19:42 | 51.81462 | 11.07315 | 3475 ft | 264 kts | 15° |
| 2026-04-18 19:42 | 51.83222 | 11.07869 | 3442 ft | 252 kts | 354° |
| 2026-04-18 19:42 | 51.84880 | 11.07130 | 3243 ft | 244 kts | 344° |
| 2026-04-18 19:43 | 51.86465 | 11.06364 | 3161 ft | 235 kts | 331° |
| 2026-04-18 19:43 | 51.87448 | 11.04365 | 3326 ft | 228 kts | 286° |
| 2026-04-18 19:43 | 51.87398 | 11.01859 | 3557 ft | 228 kts | 257° |
| 2026-04-18 19:43 | 51.86975 | 10.99225 | 3112 ft | 253 kts | 258° |
| 2026-04-18 19:44 | 51.86541 | 10.96454 | 3027 ft | 254 kts | 257° |
| 2026-04-18 19:44 | 51.86311 | 10.93687 | 2870 ft | 244 kts | 284° |
| 2026-04-18 19:44 | 51.87124 | 10.88468 | 3115 ft | 257 kts | 279° |
| 2026-04-18 19:45 | 51.87547 | 10.85547 | 3201 ft | 277 kts | 286° |
| 2026-04-18 19:45 | 51.88068 | 10.82626 | 3302 ft | 254 kts | 289° |
| 2026-04-18 19:45 | 51.88579 | 10.80092 | 3342 ft | 243 kts | 289° |
| 2026-04-18 19:45 | 51.89320 | 10.77642 | 3387 ft | 245 kts | 315° |
| 2026-04-18 19:46 | 51.90630 | 10.75875 | 3502 ft | 249 kts | 319° |
| 2026-04-18 19:46 | 51.91492 | 10.74673 | 3566 ft | 247 kts | 319° |
| 2026-04-18 19:46 | 51.93227 | 10.72168 | 3556 ft | 249 kts | 318° |
| 2026-04-18 19:46 | 51.94481 | 10.70323 | 3551 ft | 247 kts | 317° |
| 2026-04-18 19:47 | 51.95339 | 10.69055 | 3556 ft | 253 kts | 317° |
| 2026-04-18 19:47 | 51.96607 | 10.67236 | 3566 ft | 235 kts | 318° |
| 2026-04-18 19:47 | 51.97873 | 10.65433 | 3569 ft | 249 kts | 317° |
| 2026-04-18 19:47 | 51.99165 | 10.63530 | 3538 ft | 253 kts | 318° |
| 2026-04-18 19:48 | 52.00451 | 10.61668 | 3515 ft | 241 kts | 318° |
| 2026-04-18 19:48 | 52.01716 | 10.59871 | 3535 ft | 243 kts | 318° |
| 2026-04-18 19:48 | 52.03009 | 10.58012 | 3538 ft | 248 kts | 318° |
| 2026-04-18 19:48 | 52.04426 | 10.56713 | 3438 ft | 244 kts | 350° |
| 2026-04-18 19:49 | 52.06089 | 10.57148 | 3422 ft | 251 kts | 29° |
| 2026-04-18 19:49 | 52.07357 | 10.59098 | 3490 ft | 249 kts | 44° |
| 2026-04-18 19:49 | 52.08586 | 10.61113 | 3555 ft | 253 kts | 43° |
| 2026-04-18 19:49 | 52.09868 | 10.63091 | 3588 ft | 255 kts | 40° |
| 2026-04-18 19:50 | 52.11186 | 10.65027 | 3606 ft | 255 kts | 39° |
| 2026-04-18 19:50 | 52.12536 | 10.66923 | 3611 ft | 257 kts | 39° |
| 2026-04-18 19:50 | 52.13884 | 10.68805 | 3573 ft | 258 kts | 40° |
| 2026-04-18 19:50 | 52.15207 | 10.70685 | 3471 ft | 242 kts | 41° |
| 2026-04-18 19:51 | 52.16432 | 10.72484 | 3349 ft | 242 kts | 38° |
| 2026-04-18 19:51 | 52.17867 | 10.73972 | 3234 ft | 248 kts | 17° |
| 2026-04-18 19:51 | 52.19584 | 10.74114 | 3113 ft | 250 kts | 351° |
| 2026-04-18 19:51 | 52.21346 | 10.73850 | 2883 ft | 258 kts | 353° |
| 2026-04-18 19:52 | 52.23117 | 10.73494 | 2770 ft | 260 kts | 351° |
| 2026-04-18 19:52 | 52.24810 | 10.73011 | 2670 ft | 227 kts | 343° |
| 2026-04-18 19:52 | 52.26188 | 10.71854 | 2591 ft | 217 kts | 315° |
| 2026-04-18 19:52 | 52.26971 | 10.69762 | 2431 ft | 220 kts | 284° |
| 2026-04-18 19:53 | 52.26907 | 10.67249 | 2228 ft | 228 kts | 252° |
| 2026-04-18 19:53 | 52.26479 | 10.64855 | 2070 ft | 215 kts | 274° |
| 2026-04-18 19:53 | 52.28498 | 10.62494 | 1557 ft | 199 kts | 360° |
| 2026-04-18 19:54 | 52.29837 | 10.62484 | 1255 ft | 194 kts | 355° |
| 2026-04-18 19:54 | 52.31238 | 10.62278 | 1148 ft | 193 kts | 338° |
| 2026-04-18 19:54 | 52.32088 | 10.60666 | 1128 ft | 197 kts | 281° |
| 2026-04-18 19:54 | 52.32084 | 10.58447 | 735 ft | 196 kts | 268° |
| 2026-04-18 19:55 | 52.31958 | 10.56308 | 696 ft | 193 kts | 264° |
| 2026-04-18 19:55 | 52.31860 | 10.54162 | 766 ft | 177 kts | 264° |
| 2026-04-18 19:55 | 52.31817 | 10.52184 | 942 ft | 178 kts | 284° |
| 2026-04-18 19:55 | 52.32202 | 10.50157 | 1160 ft | 193 kts | 287° |
| 2026-04-18 19:56 | 52.32586 | 10.47992 | 1249 ft | 210 kts | 289° |
| 2026-04-18 19:56 | 52.33042 | 10.45869 | 1273 ft | 185 kts | 287° |
| 2026-04-18 19:56 | 52.33432 | 10.43798 | 1373 ft | 195 kts | 289° |
| 2026-04-18 19:56 | 52.33775 | 10.41724 | 1458 ft | 181 kts | 280° |
| 2026-04-18 19:57 | 52.34015 | 10.39546 | 1502 ft | 202 kts | 282° |
| 2026-04-18 19:57 | 52.34241 | 10.37306 | 1646 ft | 214 kts | 277° |
| 2026-04-18 19:57 | 52.34288 | 10.34825 | 1758 ft | 217 kts | 269° |
| 2026-04-18 19:57 | 52.34123 | 10.32404 | 1854 ft | 219 kts | 264° |
| 2026-04-18 19:58 | 52.34210 | 10.29944 | 1906 ft | 220 kts | 291° |
| 2026-04-18 19:58 | 52.34940 | 10.27786 | 2019 ft | 215 kts | 298° |
| 2026-04-18 19:58 | 52.35620 | 10.25559 | 2045 ft | 221 kts | 297° |
| 2026-04-18 19:58 | 52.36306 | 10.23316 | 2069 ft | 219 kts | 296° |
| 2026-04-18 19:59 | 52.36965 | 10.21052 | 2086 ft | 218 kts | 295° |
| 2026-04-18 19:59 | 52.37480 | 10.18742 | 2092 ft | 217 kts | 275° |
| 2026-04-18 19:59 | 52.37307 | 10.16320 | 2066 ft | 221 kts | 264° |
| 2026-04-18 19:59 | 52.37171 | 10.13811 | 2106 ft | 212 kts | 265° |
| 2026-04-18 20:00 | 52.36901 | 10.11372 | 2132 ft | 224 kts | 243° |
| 2026-04-18 20:00 | 52.35952 | 10.09288 | 2063 ft | 231 kts | 234° |
| 2026-04-18 20:00 | 52.35008 | 10.07246 | 2064 ft | 223 kts | 236° |
| 2026-04-18 20:00 | 52.34111 | 10.05180 | 2072 ft | 222 kts | 238° |
| 2026-04-18 20:01 | 52.33229 | 10.03124 | 2050 ft | 225 kts | 237° |
| 2026-04-18 20:01 | 52.32327 | 10.01054 | 2003 ft | 226 kts | 237° |
| 2026-04-18 20:01 | 52.31402 | 9.98946 | 1943 ft | 223 kts | 237° |
| 2026-04-18 20:01 | 52.30479 | 9.96972 | 1927 ft | 222 kts | 234° |
| 2026-04-18 20:02 | 52.29533 | 9.94945 | 1893 ft | 223 kts | 236° |
| 2026-04-18 20:02 | 52.28586 | 9.92947 | 1895 ft | 227 kts | 234° |
| 2026-04-18 20:02 | 52.27601 | 9.90914 | 1880 ft | 230 kts | 233° |
| 2026-04-18 20:02 | 52.26611 | 9.88899 | 1870 ft | 224 kts | 233° |
| 2026-04-18 20:03 | 52.25882 | 9.86716 | 1850 ft | 218 kts | 262° |
| 2026-04-18 20:03 | 52.25698 | 9.84289 | 1923 ft | 217 kts | 265° |
| 2026-04-18 20:03 | 52.25502 | 9.81805 | 1952 ft | 224 kts | 263° |
| 2026-04-18 20:03 | 52.25280 | 9.79266 | 1969 ft | 226 kts | 264° |
| 2026-04-18 20:04 | 52.25058 | 9.76747 | 1984 ft | 223 kts | 263° |
| 2026-04-18 20:04 | 52.24829 | 9.74264 | 1982 ft | 220 kts | 263° |
| 2026-04-18 20:04 | 52.24605 | 9.71809 | 1995 ft | 223 kts | 263° |
| 2026-04-18 20:04 | 52.24518 | 9.69374 | 1945 ft | 204 kts | 291° |
| 2026-04-18 20:05 | 52.25074 | 9.67192 | 1874 ft | 215 kts | 291° |
| 2026-04-18 20:05 | 52.25655 | 9.64829 | 1895 ft | 229 kts | 293° |
| 2026-04-18 20:05 | 52.26263 | 9.62543 | 1937 ft | 215 kts | 296° |
| 2026-04-18 20:05 | 52.27137 | 9.60559 | 1853 ft | 219 kts | 326° |
| 2026-04-18 20:06 | 52.28328 | 9.59136 | 1825 ft | 220 kts | 326° |
| 2026-04-18 20:06 | 52.29538 | 9.57689 | 1903 ft | 203 kts | 319° |
| 2026-04-18 20:06 | 52.30678 | 9.56046 | 1836 ft | 223 kts | 318° |
| 2026-04-18 20:06 | 52.31699 | 9.54213 | 1881 ft | 217 kts | 295° |
| 2026-04-18 20:07 | 52.32236 | 9.51981 | 1803 ft | 212 kts | 292° |
| 2026-04-18 20:07 | 52.32808 | 9.49745 | 1877 ft | 214 kts | 292° |
| 2026-04-18 20:07 | 52.32815 | 9.47334 | 1851 ft | 220 kts | 262° |
| 2026-04-18 20:07 | 52.32658 | 9.44835 | 1910 ft | 223 kts | 266° |
| 2026-04-18 20:08 | 52.32508 | 9.42285 | 1962 ft | 225 kts | 266° |
| 2026-04-18 20:08 | 52.32377 | 9.39764 | 2064 ft | 220 kts | 267° |
| 2026-04-18 20:08 | 52.32353 | 9.37258 | 2074 ft | 222 kts | 283° |
| 2026-04-18 20:08 | 52.32981 | 9.35057 | 2094 ft | 205 kts | 308° |
| 2026-04-18 20:09 | 52.33737 | 9.33052 | 1900 ft | 223 kts | 300° |
| 2026-04-18 20:09 | 52.34527 | 9.30881 | 1628 ft | 211 kts | 321° |
| 2026-04-18 20:09 | 52.35693 | 9.30409 | 1639 ft | 148 kts | 4° |
| 2026-04-18 20:09 | 52.36796 | 9.30558 | 1327 ft | 196 kts | 18° |
| 2026-04-18 20:10 | 52.38199 | 9.31476 | 1217 ft | 222 kts | 16° |
| 2026-04-18 20:10 | 52.39617 | 9.32144 | 1075 ft | 201 kts | 13° |
| 2026-04-18 20:10 | 52.40981 | 9.32631 | 948 ft | 196 kts | 8° |
| 2026-04-18 20:10 | 52.42007 | 9.33846 | 938 ft | 195 kts | 61° |
| 2026-04-18 20:11 | 52.42407 | 9.35958 | 1007 ft | 192 kts | 63° |
| 2026-04-18 20:11 | 52.42755 | 9.38227 | 1097 ft | 221 kts | 84° |
| 2026-04-18 20:11 | 52.42862 | 9.40660 | 1157 ft | 211 kts | 84° |
| 2026-04-18 20:11 | 52.42929 | 9.43084 | 1116 ft | 209 kts | 84° |
| 2026-04-18 20:12 | 52.43307 | 9.45265 | 1166 ft | 200 kts | 63° |
| 2026-04-18 20:12 | 52.43885 | 9.47326 | 1222 ft | 196 kts | 67° |
| 2026-04-18 20:12 | 52.44234 | 9.49565 | 1275 ft | 211 kts | 78° |
| 2026-04-18 20:12 | 52.44378 | 9.51765 | 1221 ft | 177 kts | 55° |
| 2026-04-18 20:13 | 52.45413 | 9.52724 | 1298 ft | 172 kts | 351° |
| 2026-04-18 20:13 | 52.46283 | 9.51590 | 1297 ft | 167 kts | 291° |
| 2026-04-18 20:13 | 52.46319 | 9.49605 | 1118 ft | 188 kts | 262° |
| 2026-04-18 20:13 | 52.46089 | 9.47541 | 726 ft | 178 kts | 260° |
| 2026-04-18 20:14 | 52.45756 | 9.45852 | 790 ft | 136 kts | 254° |
| 2026-04-18 20:14 | 52.45541 | 9.44385 | 840 ft | 130 kts | 271° |
| 2026-04-18 20:14 | 52.45634 | 9.42686 | 493 ft | 181 kts | 277° |
| 2026-04-18 20:14 | 52.45495 | 9.40789 | 488 ft | 149 kts | 250° |
| 2026-04-18 20:15 | 52.45152 | 9.39024 | 820 ft | 175 kts | 254° |
| 2026-04-18 20:15 | 52.44823 | 9.37149 | 962 ft | 153 kts | 257° |
| 2026-04-18 20:15 | 52.44614 | 9.36106 | 1022 ft | 155 kts | 255° |
| 2026-04-18 20:15 | 52.44791 | 9.34241 | 1218 ft | 199 kts | 309° |
| 2026-04-18 20:16 | 52.46096 | 9.33304 | 1114 ft | 228 kts | 11° |
| 2026-04-18 20:16 | 52.47118 | 9.34895 | 1174 ft | 196 kts | 76° |
| 2026-04-18 20:16 | 52.47267 | 9.37145 | 1116 ft | 209 kts | 81° |
| 2026-04-18 20:16 | 52.47471 | 9.39464 | 1293 ft | 192 kts | 77° |
| 2026-04-18 20:17 | 52.47686 | 9.41540 | 1373 ft | 195 kts | 77° |
| 2026-04-18 20:17 | 52.47933 | 9.43814 | 1317 ft | 197 kts | 80° |
| 2026-04-18 20:17 | 52.48208 | 9.45844 | 1295 ft | 182 kts | 72° |
| 2026-04-18 20:17 | 52.48494 | 9.47923 | 1421 ft | 189 kts | 81° |
| 2026-04-18 20:18 | 52.48643 | 9.50085 | 1387 ft | 190 kts | 80° |
| 2026-04-18 20:18 | 52.48592 | 9.52157 | 1405 ft | 175 kts | 113° |
| 2026-04-18 20:18 | 52.47749 | 9.53199 | 1624 ft | 148 kts | 181° |
| 2026-04-18 20:18 | 52.46846 | 9.52661 | 1541 ft | 137 kts | 238° |
| 2026-04-18 20:19 | 52.46462 | 9.51191 | 1176 ft | 144 kts | 258° |
| 2026-04-18 20:19 | 52.46308 | 9.49672 | 825 ft | 137 kts | 267° |
| 2026-04-18 20:19 | 52.46212 | 9.48091 | 670 ft | 138 kts | 263° |
| 2026-04-18 20:19 | 52.46076 | 9.46610 | 439 ft | 126 kts | 263° |
| 2026-04-18 20:20 | 52.45953 | 9.45234 | 266 ft | 118 kts | 264° |
| 2026-04-18 20:20 | 52.45848 | 9.43960 | 184 ft | 112 kts | 262° |
| 2026-04-18 20:20 | 52.45701 | 9.42416 | 476 ft | 156 kts | 263° |
| 2026-04-18 20:20 | 52.45554 | 9.40394 | 754 ft | 203 kts | 273° |
| 2026-04-18 20:21 | 52.46115 | 9.38330 | 927 ft | 205 kts | 321° |
| 2026-04-18 20:21 | 52.47479 | 9.37735 | 1050 ft | 214 kts | 9° |
| 2026-04-18 20:21 | 52.48692 | 9.39064 | 1091 ft | 221 kts | 56° |
| 2026-04-18 20:21 | 52.49053 | 9.41490 | 1123 ft | 220 kts | 81° |
| 2026-04-18 20:22 | 52.49236 | 9.43900 | 1147 ft | 208 kts | 81° |
| 2026-04-18 20:22 | 52.49406 | 9.46139 | 1186 ft | 187 kts | 81° |
| 2026-04-18 20:22 | 52.49524 | 9.48173 | 1159 ft | 171 kts | 83° |
| 2026-04-18 20:22 | 52.49583 | 9.50072 | 1207 ft | 164 kts | 85° |
| 2026-04-18 20:23 | 52.49342 | 9.51909 | 1286 ft | 171 kts | 123° |
| 2026-04-18 20:23 | 52.48345 | 9.52790 | 1192 ft | 172 kts | 185° |
| 2026-04-18 20:23 | 52.47298 | 9.52029 | 1102 ft | 162 kts | 225° |
| 2026-04-18 20:23 | 52.46661 | 9.50631 | 1004 ft | 138 kts | 246° |
| 2026-04-18 20:24 | 52.46325 | 9.49199 | 787 ft | 131 kts | 258° |
| 2026-04-18 20:24 | 52.46178 | 9.47742 | 566 ft | 129 kts | 264° |
| 2026-04-18 20:24 | 52.46050 | 9.46338 | 452 ft | 122 kts | 263° |
| 2026-04-18 20:24 | 52.45931 | 9.44986 | 246 ft | 117 kts | 264° |
| 2026-04-18 20:25 | 52.45830 | 9.43772 | 183 ft | 85 kts | 263° |
| 2026-04-18 20:25 | 52.45782 | 9.43233 | 194 ft | 27 kts | 262° |
| 2026-04-18 20:25 | 52.45788 | 9.43124 | 205 ft | 3 kts | 313° |
| 2026-04-18 20:25 | 52.45831 | 9.43091 | 207 ft | 11 kts | 346° |
| 2026-04-18 20:26 | 52.45904 | 9.43074 | 199 ft | 12 kts | 352° |
| 2026-04-18 20:26 | 52.45956 | 9.43062 | 184 ft | 10 kts | 352° |
| 2026-04-18 20:26 | 52.46028 | 9.43044 | 192 ft | 11 kts | 352° |
| 2026-04-18 20:26 | 52.46103 | 9.43022 | 181 ft | 7 kts | 334° |
| 2026-04-18 20:27 | 52.46112 | 9.42985 | 183 ft | 2 kts | 275° |
| 2026-04-18 20:27 | 52.46110 | 9.42948 | 183 ft | 4 kts | 264° |
| 2026-04-18 20:27 | 52.46104 | 9.42894 | 180 ft | 6 kts | 262° |
| 2026-04-18 20:27 | 52.46104 | 9.42884 | 180 ft | 0 kts | 262° |